Time;durP1;ratioP1;P1;durP2;ratioP2;P2;SDS_P1;SDS_P2;PMS_P1;PMS_P2;Temp;Humidity;BMP_temperature;BMP_pressure;BME280_temperature;BME280_humidity;BME280_pressure;Samples;Min_cycle;Max_cycle;Signal;HPM_P1;HPM_P2
2022/11/15 00:01:00;;;;;;;31.33;16.08;;;;;;;5.72;100.00;100902.34;6281473;22;20028;-76
2022/11/15 00:03:45;;;;;;;33.05;16.08;;;;;;;5.73;100.00;100905.75;6258926;22;20020;-77
2022/11/15 00:06:31;;;;;;;34.35;16.23;;;;;;;5.73;100.00;100900.44;6281755;22;20472;-78
2022/11/15 00:09:16;;;;;;;28.60;15.27;;;;;;;5.74;100.00;100915.16;6281651;22;20024;-78
2022/11/15 00:12:01;;;;;;;35.95;16.70;;;;;;;5.73;100.00;100905.75;6282204;22;20031;-78
2022/11/15 00:14:46;;;;;;;43.58;17.20;;;;;;;5.74;100.00;100905.34;6281848;22;20020;-78
2022/11/15 00:17:31;;;;;;;35.63;16.30;;;;;;;5.76;100.00;100900.41;6258829;22;20455;-78
2022/11/15 00:20:19;;;;;;;36.38;18.00;;;;;;;5.78;100.00;100900.00;6281814;22;20457;-78
2022/11/15 00:23:04;;;;;;;39.25;17.65;;;;;;;5.79;100.00;100901.50;6282072;22;20028;-78
2022/11/15 00:25:59;;;;;;;35.88;16.63;;;;;;;5.81;100.00;100892.03;6281994;22;20053;-78
2022/11/15 00:28:44;;;;;;;41.83;17.27;;;;;;;5.82;100.00;100890.13;6258716;22;20024;-78
2022/11/15 00:31:29;;;;;;;44.53;18.88;;;;;;;5.84;100.00;100890.47;6281515;22;20028;-78
2022/11/15 00:34:14;;;;;;;40.17;18.15;;;;;;;5.85;100.00;100884.78;6281520;22;20028;-78
2022/11/15 00:36:59;;;;;;;52.55;18.92;;;;;;;5.88;100.00;100891.16;6281887;22;20020;-78
2022/11/15 00:39:44;;;;;;;43.33;19.35;;;;;;;5.89;100.00;100884.75;6281949;22;20445;-78
2022/11/15 00:42:28;;;;;;;49.15;19.55;;;;;;;5.90;100.00;100889.63;6281098;22;20024;-78
2022/11/15 00:45:13;;;;;;;50.47;20.30;;;;;;;5.92;100.00;100903.19;6281470;22;20032;-79
2022/11/15 00:47:58;;;;;;;51.17;19.98;;;;;;;5.93;100.00;100893.38;6281880;22;20031;-78
2022/11/15 00:50:43;;;;;;;46.13;19.85;;;;;;;5.94;100.00;100892.22;6281958;22;20020;-79
2022/11/15 00:53:28;;;;;;;45.40;18.85;;;;;;;5.96;100.00;100888.03;6281509;22;20107;-78
2022/11/15 00:56:14;;;;;;;43.85;19.52;;;;;;;5.98;100.00;100879.69;6281449;22;20465;-78
2022/11/15 00:58:59;;;;;;;47.65;19.45;;;;;;;6.00;100.00;100874.72;6281461;22;20306;-78
2022/11/15 01:01:44;;;;;;;47.05;20.20;;;;;;;6.02;100.00;100877.72;6281850;22;20302;-78
2022/11/15 01:04:29;;;;;;;45.78;19.92;;;;;;;6.05;100.00;100861.06;6281266;22;20024;-78
2022/11/15 01:07:14;;;;;;;47.42;18.48;;;;;;;6.08;100.00;100851.56;6280711;22;20032;-78
2022/11/15 01:09:59;;;;;;;37.70;18.70;;;;;;;6.12;100.00;100862.81;6281836;22;20024;-78
2022/11/15 01:12:44;;;;;;;43.80;18.83;;;;;;;6.15;100.00;100862.03;6281244;22;20020;-78
2022/11/15 01:15:29;;;;;;;40.38;18.60;;;;;;;6.16;100.00;100864.25;6281188;22;20415;-78
2022/11/15 01:18:14;;;;;;;35.42;18.10;;;;;;;6.20;100.00;100861.56;6281361;22;20036;-78
2022/11/15 01:21:06;;;;;;;47.22;18.83;;;;;;;6.22;100.00;100853.97;6281881;22;20024;-78
2022/11/15 01:23:55;;;;;;;37.78;19.08;;;;;;;6.25;100.00;100850.50;6224168;22;20023;-78
2022/11/15 01:26:41;;;;;;;43.20;17.15;;;;;;;6.27;100.00;100856.88;6311772;22;20108;-78
2022/11/15 01:29:26;;;;;;;36.83;18.38;;;;;;;6.30;100.00;100852.69;6312061;22;20023;-78
2022/11/15 01:32:11;;;;;;;40.70;18.83;;;;;;;6.33;100.00;100852.63;6312353;22;20023;-78
2022/11/15 01:34:56;;;;;;;38.25;18.23;;;;;;;6.35;100.00;100847.66;6312891;22;20403;-78
2022/11/15 01:37:41;;;;;;;36.35;18.45;;;;;;;6.39;100.00;100850.25;6311898;22;20027;-78
2022/11/15 01:40:26;;;;;;;37.20;18.10;;;;;;;6.42;100.00;100844.13;6312434;22;20356;-78
2022/11/15 01:43:29;;;;;;;37.05;18.50;;;;;;;6.44;100.00;100844.47;6312473;22;20024;-78
2022/11/15 01:46:21;;;;;;;44.30;19.35;;;;;;;6.47;100.00;100837.59;6312446;22;20024;-78
2022/11/15 01:49:14;;;;;;;41.45;18.98;;;;;;;6.49;100.00;100843.22;6312472;22;20413;-77
2022/11/15 01:52:03;;;;;;;36.85;18.98;;;;;;;6.52;100.00;100845.06;6312094;22;20024;-77
2022/11/15 01:54:53;;;;;;;51.35;19.60;;;;;;;6.54;100.00;100840.88;6312735;22;20113;-78
2022/11/15 01:57:42;;;;;;;38.08;18.38;;;;;;;6.57;100.00;100831.38;6312661;22;20032;-78
2022/11/15 02:00:29;;;;;;;37.78;18.77;;;;;;;6.59;100.00;100827.16;6312241;22;20039;-78
2022/11/15 02:03:14;;;;;;;45.35;19.25;;;;;;;6.61;100.00;100827.50;6311828;22;20070;-78
2022/11/15 02:05:59;;;;;;;43.60;19.13;;;;;;;6.65;100.00;100828.16;6312321;22;20020;-78
2022/11/15 02:08:44;;;;;;;36.70;17.75;;;;;;;6.67;100.00;100831.16;6312007;22;20020;-78
2022/11/15 02:11:30;;;;;;;45.03;19.08;;;;;;;6.70;100.00;100824.31;6312403;22;20487;-78
2022/11/15 02:14:18;;;;;;;40.47;19.80;;;;;;;6.73;100.00;100822.72;6312139;22;20024;-78
2022/11/15 02:17:37;;;;;;;53.28;20.02;;;;;;;6.78;100.00;100817.72;6312560;22;20023;-78
2022/11/15 02:20:31;;;;;;;40.67;18.42;;;;;;;6.82;100.00;100804.38;6312269;22;20019;-78
2022/11/15 02:23:35;;;;;;;35.40;18.30;;;;;;;6.84;100.00;100810.75;6309854;22;20019;-78
2022/11/15 02:26:42;;;;;;;43.17;19.83;;;;;;;6.90;100.00;100798.53;6311952;22;20032;-78
2022/11/15 02:29:54;;;;;;;38.22;18.90;;;;;;;6.94;100.00;100799.19;6312003;22;20031;-78
2022/11/15 02:32:57;;;;;;;40.50;19.92;;;;;;;6.96;100.00;100799.53;6312480;22;20020;-78
2022/11/15 02:35:52;;;;;;;;;;;;;;;7.00;100.00;100791.50;6312027;22;20023;-77
2022/11/15 02:38:41;;;;;;;46.78;18.13;;;;;;;7.03;100.00;100783.47;6312560;22;19977;-77
2022/11/15 02:41:36;;;;;;;34.67;18.45;;;;;;;7.08;100.00;100784.16;6288902;22;20020;-77
2022/11/15 02:44:33;;;;;;;37.60;18.13;;;;;;;7.12;100.00;100768.94;6312114;22;20020;-78
2022/11/15 02:47:19;;;;;;;36.53;18.55;;;;;;;7.15;100.00;100771.50;6311728;22;20028;-78
2022/11/15 02:50:15;;;;;;;40.42;19.33;;;;;;;7.20;100.00;100770.97;6311890;22;20106;-78
2022/11/15 02:53:00;;;;;;;35.75;19.45;;;;;;;7.23;100.00;100766.75;6287836;22;20024;-78
2022/11/15 02:55:50;;;;;;;36.60;18.27;;;;;;;7.26;100.00;100757.97;6312386;22;20118;-78
2022/11/15 02:59:05;;;;;;;43.13;18.95;;;;;;;7.30;100.00;100764.69;6311755;22;20051;-78
2022/11/15 03:02:08;;;;;;;43.00;18.40;;;;;;;7.33;100.00;100763.09;6312072;22;20024;-77
2022/11/15 03:04:58;;;;;;;32.58;17.85;;;;;;;7.36;100.00;100741.09;6311739;22;20024;-77
2022/11/15 03:08:03;;;;;;;32.55;18.30;;;;;;;7.40;100.00;100744.41;6311801;22;20448;-80
2022/11/15 03:11:15;;;;;;;38.13;18.00;;;;;;;7.42;100.00;100739.44;6312057;22;20023;-77
2022/11/15 03:14:12;;;;;;;30.30;17.88;;;;;;;7.45;100.00;100749.19;6312224;22;20119;-77
2022/11/15 03:17:05;;;;;;;39.45;18.25;;;;;;;7.48;100.00;100747.63;6313201;22;20430;-77
2022/11/15 03:19:54;;;;;;;32.40;18.20;;;;;;;7.51;100.00;100747.53;6312697;22;20028;-77
2022/11/15 03:22:44;;;;;;;31.83;17.38;;;;;;;7.54;100.00;100751.25;6313401;22;20020;-77
2022/11/15 03:25:32;;;;;;;29.20;18.13;;;;;;;7.56;100.00;100754.97;6312660;22;20023;-77
2022/11/15 03:28:24;;;;;;;26.15;17.23;;;;;;;7.60;100.00;100744.25;6312507;22;20024;-77
2022/11/15 03:34:25;;;;;;;26.95;16.95;;;;;;;7.67;100.00;100766.00;6311962;22;20020;-77
2022/11/15 03:37:14;;;;;;;38.17;18.33;;;;;;;7.70;100.00;100751.94;6313039;22;20035;-77
2022/11/15 03:40:00;;;;;;;29.92;18.05;;;;;;;7.76;100.00;100757.47;6313110;22;20024;-77
2022/11/15 03:43:19;;;;;;;33.88;18.20;;;;;;;7.80;100.00;100760.75;6313112;22;20408;-77
2022/11/15 03:46:14;;;;;;;28.05;16.77;;;;;;;7.85;100.00;100759.50;6313163;22;20442;-78
2022/11/15 03:49:07;;;;;;;30.58;16.73;;;;;;;7.86;100.00;100759.09;6312673;22;20464;-77
2022/11/15 03:51:52;;;;;;;29.33;16.80;;;;;;;7.88;100.00;100764.72;6313388;22;20019;-79
2022/11/15 03:54:48;;;;;;;34.90;17.70;;;;;;;7.95;100.00;100767.19;6313598;22;20020;-77
2022/11/15 03:57:34;;;;;;;32.75;18.10;;;;;;;7.98;100.00;100758.41;6313114;22;20110;-77
2022/11/15 04:00:19;;;;;;;38.65;18.92;;;;;;;8.03;100.00;100751.81;6312849;22;20023;-78
2022/11/15 04:03:04;;;;;;;34.53;17.85;;;;;;;8.06;100.00;100750.22;6312812;22;20023;-77
2022/11/15 04:05:49;;;;;;;30.08;18.33;;;;;;;8.08;100.00;100746.00;6312955;22;21066;-78
2022/11/15 04:08:34;;;;;;;34.17;17.95;;;;;;;8.11;100.00;100750.44;6312900;22;20044;-78
2022/11/15 04:11:19;;;;;;;34.60;18.23;;;;;;;8.17;100.00;100750.69;6312741;22;20030;-78
2022/11/15 04:14:03;;;;;;;35.40;18.77;;;;;;;8.21;100.00;100749.41;6312924;22;20020;-78
2022/11/15 04:16:48;;;;;;;29.98;18.25;;;;;;;8.24;100.00;100745.91;6313307;22;20672;-78
2022/11/15 04:25:43;;;;;;;24.92;17.15;;;;;;;8.34;100.00;100742.25;6312868;22;20051;-78
2022/11/15 04:28:28;;;;;;;25.67;19.00;;;;;;;8.36;100.00;100739.19;6312476;22;20024;-79
2022/11/15 04:31:13;;;;;;;28.48;17.48;;;;;;;8.41;100.00;100724.63;6312373;22;20023;-79
2022/11/15 04:33:59;;;;;;;27.55;17.77;;;;;;;8.45;100.00;100735.88;6289814;22;20082;-79
2022/11/15 04:39:47;;;;;;;28.25;17.30;;;;;;;8.48;100.00;100743.72;6313182;22;20019;-79
2022/11/15 04:42:32;;;;;;;27.08;17.27;;;;;;;8.50;100.00;100735.34;6312879;22;20023;-79
2022/11/15 04:45:17;;;;;;;26.35;17.55;;;;;;;8.50;100.00;100730.78;6312792;22;20020;-79
2022/11/15 04:48:02;;;;;;;33.00;18.10;;;;;;;8.52;100.00;100730.34;6312263;22;20054;-79
2022/11/15 04:50:48;;;;;;;23.10;16.73;;;;;;;8.53;100.00;100735.25;6313012;22;20020;-79
2022/11/15 04:53:33;;;;;;;24.75;16.95;;;;;;;8.55;100.00;100732.16;6312547;22;20028;-79
2022/11/15 04:56:19;;;;;;;30.00;16.48;;;;;;;8.58;100.00;100732.06;6312630;22;20031;-79
2022/11/15 04:59:04;;;;;;;27.10;16.27;;;;;;;8.60;100.00;100735.03;6312913;22;20020;-78
2022/11/15 05:01:49;;;;;;;30.52;16.35;;;;;;;8.62;100.00;100722.09;6312164;22;20020;-78
2022/11/15 05:04:34;;;;;;;21.88;16.35;;;;;;;8.64;100.00;100730.34;6312280;22;20023;-79
2022/11/15 05:07:19;;;;;;;31.50;16.75;;;;;;;8.65;100.00;100726.53;6312220;22;20032;-79
2022/11/15 05:10:04;;;;;;;26.80;16.60;;;;;;;8.67;100.00;100731.41;6312776;22;20024;-78
2022/11/15 05:12:49;;;;;;;27.98;16.50;;;;;;;8.67;100.00;100740.13;6312941;22;20028;-78
2022/11/15 05:15:34;;;;;;;26.05;16.27;;;;;;;8.68;100.00;100733.66;6311889;22;20019;-78
2022/11/15 05:18:19;;;;;;;25.23;16.95;;;;;;;8.73;100.00;100742.25;6312537;22;20051;-79
2022/11/15 05:21:11;;;;;;;32.22;17.92;;;;;;;8.73;100.00;100748.31;6312914;22;20030;-79
2022/11/15 05:23:56;;;;;;;25.60;16.80;;;;;;;8.72;100.00;100746.06;6312620;22;20043;-79
2022/11/15 05:26:41;;;;;;;28.58;18.13;;;;;;;8.72;100.00;100751.38;6312641;22;20023;-78
2022/11/15 05:29:26;;;;;;;27.95;17.48;;;;;;;8.71;100.00;100745.31;6311940;22;20023;-79
2022/11/15 05:32:12;;;;;;;29.67;17.23;;;;;;;8.73;100.00;100747.56;6312498;22;20020;-78
2022/11/15 05:34:57;;;;;;;32.42;18.00;;;;;;;8.76;100.00;100742.13;6312800;22;20028;-78
2022/11/15 05:37:42;;;;;;;29.42;17.52;;;;;;;8.76;100.00;100746.72;6312055;22;20099;-78
2022/11/15 05:40:29;;;;;;;27.10;17.83;;;;;;;8.78;100.00;100741.72;6289090;22;20020;-78
2022/11/15 05:43:14;;;;;;;23.50;16.55;;;;;;;8.80;100.00;100750.72;6312475;22;20024;-79
2022/11/15 05:46:01;;;;;;;26.15;17.70;;;;;;;8.83;100.00;100749.88;6311996;22;20055;-78
2022/11/15 05:48:49;;;;;;;24.95;17.02;;;;;;;8.87;100.00;100750.50;6312643;22;20059;-78
2022/11/15 05:51:35;;;;;;;26.67;16.35;;;;;;;8.90;100.00;100756.88;6312249;22;20024;-77
2022/11/15 05:54:23;;;;;;;26.73;17.10;;;;;;;8.92;100.00;100759.84;6312268;22;20059;-78
2022/11/15 05:57:08;;;;;;;27.42;17.55;;;;;;;8.95;100.00;100764.31;6312723;22;20024;-78
2022/11/15 05:59:54;;;;;;;28.88;17.13;;;;;;;8.96;100.00;100763.13;6312155;22;20051;-77
2022/11/15 06:02:39;;;;;;;25.65;17.70;;;;;;;8.97;100.00;100759.31;6312399;22;20028;-77
2022/11/15 06:05:24;;;;;;;24.50;16.50;;;;;;;8.98;100.00;100764.19;6312115;22;20103;-79
2022/11/15 06:08:09;;;;;;;24.00;17.90;;;;;;;8.99;100.00;100760.38;6312502;22;20028;-78
2022/11/15 06:10:54;;;;;;;22.20;16.00;;;;;;;9.04;100.00;100761.75;6312402;22;20024;-78
2022/11/15 06:13:40;;;;;;;25.60;16.80;;;;;;;9.07;100.00;100763.53;6311990;22;20543;-78
2022/11/15 06:16:25;;;;;;;28.02;16.85;;;;;;;9.12;100.00;100762.25;6312385;22;20020;-78
2022/11/15 06:19:09;;;;;;;25.50;16.65;;;;;;;9.15;100.00;100759.50;6312575;22;20440;-78
2022/11/15 06:21:55;;;;;;;30.20;17.48;;;;;;;9.18;100.00;100766.59;6312665;22;20019;-78
2022/11/15 06:24:40;;;;;;;27.33;16.95;;;;;;;9.20;100.00;100776.78;6312143;22;20486;-78
2022/11/15 06:27:25;;;;;;;26.00;16.63;;;;;;;9.21;100.00;100772.94;6312040;22;20294;-79
2022/11/15 06:30:10;;;;;;;25.80;17.17;;;;;;;9.24;100.00;100777.41;6312418;22;20023;-79
2022/11/15 06:33:05;;;;;;;26.42;17.55;;;;;;;9.24;100.00;100777.41;6312509;22;20090;-79
2022/11/15 06:35:50;;;;;;;28.52;17.55;;;;;;;9.28;100.00;100780.69;6312251;22;20028;-78
2022/11/15 06:38:35;;;;;;;28.75;17.80;;;;;;;9.31;100.00;100782.50;6312054;22;20024;-78
2022/11/15 06:41:21;;;;;;;28.90;17.95;;;;;;;9.28;100.00;100778.78;6312072;22;20099;-79
2022/11/15 06:44:06;;;;;;;26.63;17.15;;;;;;;9.30;100.00;100778.34;6311481;22;20024;-78
2022/11/15 06:46:50;;;;;;;27.02;17.17;;;;;;;9.31;100.00;100766.56;6312269;22;20451;-78
2022/11/15 06:49:35;;;;;;;29.83;17.17;;;;;;;9.31;100.00;100777.19;6312390;22;20047;-78
2022/11/15 06:52:21;;;;;;;34.00;18.65;;;;;;;9.32;100.00;100787.38;6312654;22;20047;-78
2022/11/15 06:55:07;;;;;;;22.15;17.25;;;;;;;9.31;100.00;100777.19;6313404;22;20433;-78
2022/11/15 06:57:53;;;;;;;28.42;17.27;;;;;;;9.31;100.00;100796.53;6312988;22;20055;-80
2022/11/15 07:00:38;;;;;;;28.70;16.75;;;;;;;9.34;100.00;100803.63;6290265;22;20558;-80
2022/11/15 07:03:23;;;;;;;25.20;16.48;;;;;;;9.34;100.00;100802.91;6289896;22;20020;-77
2022/11/15 07:06:08;;;;;;;23.80;17.13;;;;;;;9.33;100.00;100804.81;6313520;22;20019;-78
2022/11/15 07:08:53;;;;;;;26.27;16.90;;;;;;;9.35;100.00;100799.81;6313435;22;20181;-81
2022/11/15 07:11:38;;;;;;;36.85;16.88;;;;;;;9.37;100.00;100799.38;6312852;22;20099;-81
2022/11/15 07:14:23;;;;;;;30.33;17.38;;;;;;;9.38;100.00;100802.78;6313190;22;20020;-81
2022/11/15 07:17:08;;;;;;;28.02;16.63;;;;;;;9.38;100.00;100803.53;6313454;22;20020;-80
2022/11/15 07:19:53;;;;;;;26.80;16.50;;;;;;;9.39;100.00;100812.25;6312774;22;20043;-80
2022/11/15 07:22:38;;;;;;;23.55;16.05;;;;;;;9.39;100.00;100806.94;6313481;22;20452;-79
2022/11/15 07:25:23;;;;;;;31.55;17.77;;;;;;;9.42;100.00;100809.47;6312928;22;20023;-79
2022/11/15 07:28:08;;;;;;;23.73;16.20;;;;;;;9.43;100.00;100804.91;6313406;22;20433;-79
2022/11/15 07:30:53;;;;;;;24.42;16.60;;;;;;;9.43;100.00;100810.97;6314087;22;20028;-81
2022/11/15 07:33:38;;;;;;;26.23;16.80;;;;;;;9.44;100.00;100804.47;6314056;22;20024;-83
2022/11/15 07:36:23;;;;;;;26.48;16.35;;;;;;;9.46;100.00;100806.69;6314057;22;20024;-83
2022/11/15 07:39:09;;;;;;;27.63;15.32;;;;;;;9.47;100.00;100808.19;6314055;22;20444;-83
2022/11/15 07:42:52;;;;;;;23.52;15.38;;;;;;;9.49;100.00;100811.91;6313560;22;20028;-83
2022/11/15 07:44:59;;;;;;;29.33;15.32;;;;;;;9.50;100.00;100808.06;6313815;22;20024;-82
2022/11/15 07:47:49;;;;;;;21.05;14.80;;;;;;;9.51;100.00;100801.59;6313977;22;20028;-82
2022/11/15 07:50:34;;;;;;;25.77;15.68;;;;;;;9.51;100.00;100798.19;6291392;22;20043;-83
2022/11/15 07:53:19;;;;;;;21.88;14.52;;;;;;;9.52;100.00;100797.75;6314123;22;20024;-84
2022/11/15 07:56:08;;;;;;;23.23;15.40;;;;;;;9.55;100.00;100791.59;6313550;22;20085;-79
2022/11/15 07:58:53;;;;;;;28.85;14.55;;;;;;;9.55;100.00;100794.25;6313832;22;20432;-80
2022/11/15 08:01:38;;;;;;;22.83;14.68;;;;;;;9.55;100.00;100794.25;6313658;22;20023;-81
2022/11/15 08:04:23;;;;;;;21.45;14.60;;;;;;;9.59;100.00;100802.09;6313866;22;20146;-80
2022/11/15 08:07:08;;;;;;;27.63;15.02;;;;;;;9.62;100.00;100793.25;6313618;22;20019;-81
2022/11/15 08:09:54;;;;;;;20.77;14.05;;;;;;;9.66;100.00;100797.25;6313173;22;20023;-81
2022/11/15 08:12:39;;;;;;;25.77;14.32;;;;;;;9.67;100.00;100792.69;6314066;22;20333;-80
2022/11/15 08:15:25;;;;;;;24.05;13.73;;;;;;;9.68;100.00;100786.94;6314044;22;20039;-77
2022/11/15 08:18:13;;;;;;;23.10;13.10;;;;;;;9.70;100.00;100783.84;6313018;22;20077;-79
2022/11/15 08:20:59;;;;;;;19.98;13.18;;;;;;;9.71;100.00;100798.63;6313691;22;20527;-80
2022/11/15 08:23:45;;;;;;;24.83;14.10;;;;;;;9.75;100.00;100798.50;6310793;22;20019;-77
2022/11/15 08:26:30;;;;;;;23.00;13.57;;;;;;;9.77;100.00;100799.56;6313321;22;20034;-80
2022/11/15 08:29:15;;;;;;;18.45;13.90;;;;;;;9.81;100.00;100794.13;6313113;22;20023;-80
2022/11/15 08:32:00;;;;;;;18.98;13.43;;;;;;;9.85;100.00;100794.75;6313255;22;20436;-78
2022/11/15 08:34:45;;;;;;;20.95;12.90;;;;;;;9.87;100.00;100792.41;6313695;22;20067;-82
2022/11/15 08:37:29;;;;;;;27.52;13.15;;;;;;;9.87;100.00;100787.84;6313274;22;20038;-80
2022/11/15 08:40:15;;;;;;;16.90;12.27;;;;;;;9.89;100.00;100782.09;6312933;22;20055;-80
2022/11/15 08:43:02;;;;;;;18.40;12.93;;;;;;;9.91;100.00;100775.16;6313709;22;20055;-81
2022/11/15 08:45:47;;;;;;;18.15;12.45;;;;;;;9.93;100.00;100772.06;6313253;22;20015;-82
2022/11/15 08:48:32;;;;;;;18.38;12.73;;;;;;;9.96;100.00;100763.22;6313364;22;20027;-83
2022/11/15 08:51:17;;;;;;;19.45;12.25;;;;;;;9.97;100.00;100762.06;6312947;22;20023;-78
2022/11/15 08:54:03;;;;;;;20.38;12.88;;;;;;;10.00;100.00;100756.56;6312624;22;20918;-76
2022/11/15 08:56:48;;;;;;;20.85;12.57;;;;;;;10.05;100.00;100760.59;6313570;22;20015;-80
2022/11/15 08:59:33;;;;;;;22.52;13.25;;;;;;;10.10;100.00;100772.59;6313062;22;20027;-81
2022/11/15 09:02:18;;;;;;;18.33;12.65;;;;;;;10.14;100.00;100760.66;6290599;22;20453;-83
2022/11/15 09:05:04;;;;;;;20.98;13.48;;;;;;;10.20;100.00;100758.94;6314122;22;20023;-85
2022/11/15 09:07:53;;;;;;;22.23;12.43;;;;;;;10.24;100.00;100764.88;6313866;22;20027;-83
2022/11/15 09:10:38;;;;;;;24.65;12.68;;;;;;;10.28;100.00;100760.19;6314729;22;20024;-78
2022/11/15 09:13:23;;;;;;;21.63;12.98;;;;;;;10.38;100.00;100768.94;6312749;22;20460;-81
2022/11/15 09:16:09;;;;;;;16.70;12.40;;;;;;;10.52;100.00;100762.34;6313007;22;20436;-82
2022/11/15 09:18:54;;;;;;;16.65;12.48;;;;;;;10.65;100.00;100761.06;6313555;22;20441;-82
2022/11/15 09:21:39;;;;;;;18.48;12.70;;;;;;;10.74;100.00;100752.38;6312858;22;20024;-80
2022/11/15 09:24:24;;;;;;;15.85;12.18;;;;;;;10.78;100.00;100758.31;6313042;22;20020;-79
2022/11/15 09:27:09;;;;;;;15.77;11.98;;;;;;;10.73;100.00;100755.47;6313377;22;20023;-79
2022/11/15 09:29:54;;;;;;;17.40;11.10;;;;;;;10.71;100.00;100747.19;6313459;22;20023;-84
2022/11/15 09:32:40;;;;;;;14.38;11.02;;;;;;;10.70;100.00;100754.44;6312642;22;20024;-79
2022/11/15 09:35:24;;;;;;;13.65;10.55;;;;;;;10.72;100.00;100759.31;6312340;22;20098;-77
2022/11/15 09:38:09;;;;;;;16.25;9.63;;;;;;;10.70;100.00;100751.75;6312169;22;20024;-79
2022/11/15 09:41:13;;;;;;;13.43;9.38;;;;;;;10.67;100.00;100752.63;6312500;22;20043;-78
2022/11/15 09:44:10;;;;;;;16.98;9.43;;;;;;;10.63;100.00;100739.47;6311709;22;20024;-78
2022/11/15 09:46:58;;;;;;;20.45;9.38;;;;;;;10.64;100.00;100745.53;6313274;22;20083;-79
2022/11/15 09:49:53;;;;;;;12.32;9.60;;;;;;;10.68;100.00;100746.13;6285269;22;20453;-81
2022/11/15 09:52:29;;;;;;;11.13;8.50;;;;;;;10.69;100.00;100736.97;6312694;22;20087;-79
2022/11/15 09:54:55;;;;;;;10.85;8.13;;;;;;;10.68;99.40;100730.91;6313188;22;20043;-79
2022/11/15 09:57:39;;;;;;;9.82;7.95;;;;;;;10.78;99.75;100739.66;6313079;22;20368;-79
2022/11/15 10:00:18;;;;;;;10.38;8.02;;;;;;;10.87;98.91;100742.31;6313238;22;20066;-79
2022/11/15 10:03:17;;;;;;;9.88;7.43;;;;;;;10.92;98.47;100736.41;6312966;22;20020;-79
2022/11/15 10:05:50;;;;;;;12.13;7.75;;;;;;;10.94;97.74;100731.38;6312395;22;20093;-80
2022/11/15 10:08:46;;;;;;;11.52;7.63;;;;;;;11.03;98.14;100731.41;6312891;22;20037;-80
2022/11/15 10:11:22;;;;;;;8.90;7.35;;;;;;;11.02;97.39;100727.25;6312967;22;20012;-80
2022/11/15 10:14:20;;;;;;;12.48;7.45;;;;;;;11.00;96.97;100731.56;6312919;22;20433;-80
2022/11/15 10:17:02;;;;;;;8.40;6.78;;;;;;;11.05;96.41;100724.91;6313052;22;20016;-79
2022/11/15 10:19:50;;;;;;;11.20;7.47;;;;;;;11.05;95.71;100719.56;6312461;22;20498;-77
2022/11/15 10:22:32;;;;;;;7.97;7.18;;;;;;;11.09;95.89;100728.16;6313017;22;20087;-79
2022/11/15 10:25:13;;;;;;;6.50;5.70;;;;;;;11.06;94.78;100718.38;6311969;22;20066;-80
2022/11/15 10:27:43;;;;;;;8.57;6.25;;;;;;;11.09;94.16;100722.84;6312931;22;20382;-79
2022/11/15 10:30:15;;;;;;;5.15;4.60;;;;;;;11.11;93.17;100713.22;6312935;22;20047;-79
2022/11/15 10:32:44;;;;;;;6.65;4.60;;;;;;;11.08;92.12;100710.69;6312972;22;20012;-79
2022/11/15 10:35:29;;;;;;;5.00;4.50;;;;;;;11.06;92.53;100708.47;6312204;22;20011;-79
2022/11/15 10:38:10;;;;;;;9.63;4.50;;;;;;;11.03;92.31;100706.69;6312618;22;20074;-79
2022/11/15 10:40:38;;;;;;;7.45;5.03;;;;;;;11.07;91.37;100699.31;6312866;22;20018;-79
2022/11/15 10:43:18;;;;;;;6.30;4.07;;;;;;;11.11;90.96;100696.50;6312727;22;20023;-78
2022/11/15 10:45:46;;;;;;;8.40;4.60;;;;;;;11.08;90.79;100684.81;6312225;22;20062;-81
2022/11/15 10:48:12;;;;;;;5.32;4.28;;;;;;;11.08;90.83;100684.81;6312630;22;20100;-79
2022/11/15 10:50:41;;;;;;;6.55;4.13;;;;;;;11.08;90.85;100686.72;6312302;22;20863;-80
2022/11/15 10:53:19;;;;;;;6.65;3.78;;;;;;;11.15;90.76;100673.13;6313045;22;20386;-81
2022/11/15 10:55:53;;;;;;;4.88;4.10;;;;;;;11.19;90.89;100673.72;6285332;22;20463;-81
2022/11/15 10:58:42;;;;;;;6.13;4.03;;;;;;;11.21;91.04;100668.66;6312654;22;20043;-80
2022/11/15 11:01:12;;;;;;;5.65;3.97;;;;;;;11.26;90.71;100660.81;6286122;22;20082;-80
2022/11/15 11:03:41;;;;;;;4.57;4.13;;;;;;;11.29;89.64;100661.84;6312280;22;20012;-79
2022/11/15 11:06:09;;;;;;;5.05;3.83;;;;;;;11.31;88.74;100654.88;6312332;22;20016;-79
2022/11/15 11:08:37;;;;;;;5.68;3.50;;;;;;;11.40;88.72;100650.72;6312510;22;20685;-81
2022/11/15 11:11:05;;;;;;;5.10;3.47;;;;;;;11.42;88.17;100653.69;6312606;22;20016;-81
2022/11/15 11:13:37;;;;;;;4.82;3.65;;;;;;;11.35;88.85;100658.13;6312744;22;20090;-82
2022/11/15 11:16:06;;;;;;;4.20;3.10;;;;;;;11.33;88.26;100655.16;6312375;22;20046;-82
2022/11/15 11:18:48;;;;;;;7.38;3.63;;;;;;;11.30;88.65;100650.00;6312030;22;20023;-81
2022/11/15 11:21:22;;;;;;;5.18;3.33;;;;;;;11.34;88.79;100655.91;6312805;22;20047;-82
2022/11/15 11:24:10;;;;;;;4.53;4.00;;;;;;;11.45;88.25;100650.88;6311837;22;20023;-82
2022/11/15 11:26:57;;;;;;;4.50;3.70;;;;;;;11.42;87.89;100645.69;6312601;22;20031;-77
2022/11/15 11:29:49;;;;;;;3.70;3.40;;;;;;;11.36;88.28;100645.53;6312653;22;20042;-81
2022/11/15 11:32:34;;;;;;;3.83;3.30;;;;;;;11.29;87.55;100635.19;6311844;22;20050;-80
2022/11/15 11:35:11;;;;;;;3.90;3.60;;;;;;;11.26;87.47;100644.06;6312747;22;20051;-81
2022/11/15 11:38:00;;;;;;;3.42;3.13;;;;;;;11.25;88.36;100634.59;6313547;22;20492;-81
2022/11/15 11:40:54;;;;;;;4.18;3.33;;;;;;;11.27;87.82;100638.28;6314072;22;20440;-82
2022/11/15 11:43:36;;;;;;;4.68;2.88;;;;;;;11.30;87.52;100631.34;6314196;22;20454;-82
2022/11/15 11:46:18;;;;;;;;;;;;;;;11.31;89.60;100636.22;6314518;22;20012;-82
2022/11/15 11:48:56;;;;;;;3.50;2.95;;;;;;;11.31;87.48;100622.16;6313246;22;19919;-79
2022/11/15 11:51:31;;;;;;;3.03;2.65;;;;;;;11.38;86.70;100621.13;6314015;22;20039;-79
2022/11/15 11:54:05;;;;;;;3.17;2.90;;;;;;;11.44;86.67;100625.41;6313702;22;20012;-80
2022/11/15 11:56:34;;;;;;;4.13;2.83;;;;;;;11.49;85.22;100616.06;6314058;22;20035;-80
2022/11/15 11:59:11;;;;;;;6.18;2.60;;;;;;;11.52;85.09;100609.84;6313656;22;20019;-80
2022/11/15 12:01:43;;;;;;;2.97;2.10;;;;;;;11.56;84.39;100597.84;6313260;22;20024;-81
2022/11/15 12:04:30;;;;;;;5.55;2.45;;;;;;;11.57;84.67;100593.97;6313627;22;20389;-81
2022/11/15 12:07:08;;;;;;;4.65;1.98;;;;;;;11.58;83.15;100584.06;6313695;22;20044;-77
2022/11/15 12:09:51;;;;;;;3.13;1.85;;;;;;;11.59;83.66;100586.28;6313508;22;20023;-78
2022/11/15 12:12:44;;;;;;;7.50;1.90;;;;;;;11.60;83.39;100581.66;6313561;22;20051;-79
2022/11/15 12:15:25;;;;;;;2.50;1.70;;;;;;;11.55;82.02;100582.28;6313822;22;20050;-82
2022/11/15 12:17:55;;;;;;;2.42;1.52;;;;;;;11.52;81.71;100575.19;6313629;22;20016;-81
2022/11/15 12:20:29;;;;;;;4.22;1.27;;;;;;;11.51;80.62;100569.13;6313252;22;20042;-80
2022/11/15 12:23:07;;;;;;;6.00;1.63;;;;;;;11.51;81.13;100574.44;6313618;22;20024;-81
2022/11/15 12:25:44;;;;;;;3.70;1.63;;;;;;;11.50;81.34;100559.63;6313355;22;20035;-80
2022/11/15 12:28:21;;;;;;;5.05;1.50;;;;;;;11.50;80.33;100548.97;6313507;22;20074;-79
2022/11/15 12:31:03;;;;;;;3.88;1.50;;;;;;;11.52;80.61;100537.88;6313133;22;20035;-80
2022/11/15 12:33:46;;;;;;;2.47;1.58;;;;;;;11.55;79.88;100542.28;6313730;22;20431;-81
2022/11/15 12:36:21;;;;;;;1.80;1.67;;;;;;;11.56;79.35;100541.84;6286377;22;20039;-79
2022/11/15 12:38:55;;;;;;;4.22;1.52;;;;;;;11.56;78.79;100539.19;6313758;22;20035;-79
2022/11/15 12:41:25;;;;;;;4.47;1.42;;;;;;;11.59;77.88;100537.53;6313619;22;20436;-82
2022/11/15 12:43:52;;;;;;;6.35;1.45;;;;;;;11.61;78.42;100519.88;6286055;22;20015;-80
2022/11/15 12:46:24;;;;;;;3.53;1.50;;;;;;;11.60;77.91;100517.66;6312952;22;20048;-79